This is the latest recevied weather packets stored in our database for station/object NUUKSIO. If no packets are shown the sender has not sent any weather packets the latest 10 day(s).
| Time | Temp. | Humidity | Pressure | Rain* | Wind** | Luminosity | Snow |
|---|---|---|---|---|---|---|---|
| 1788417880 | 13.33° C | 100% | 1005.8 hPa | 0 mm | - | - | - |
| 1788415478 | 12.78° C | 100% | 1006 hPa | 0 mm | - | - | - |
| 1788414278 | 12.22° C | 100% | 1006 hPa | 0 mm | - | - | - |
| 1788413079 | 12.22° C | 100% | 1005.9 hPa | 0 mm | - | - | - |
| 1788411878 | 12.22° C | 100% | 1006 hPa | 0 mm | - | - | - |
| 1788410679 | 12.22° C | 100% | 1006 hPa | 0 mm | - | - | - |
| 1788409479 | 12.78° C | 100% | 1006 hPa | 0 mm | - | - | - |
| 1788407079 | 12.78° C | 100% | 1006 hPa | 0 mm | - | - | - |
| 1788405879 | 12.22° C | 100% | 1006 hPa | 0 mm | - | - | - |
| 1788404678 | 12.78° C | 100% | 1006.1 hPa | 0 mm | - | - | - |
| 1788403478 | 12.78° C | 100% | 1006 hPa | 0 mm | - | - | - |
| 1788402280 | 12.78° C | 100% | 1006.1 hPa | 0 mm | - | - | - |
| 1788380677 | 13.33° C | 100% | 1008 hPa | 0 mm | - | - | - |
| 1788377078 | 13.89° C | 100% | 1007.9 hPa | 0 mm | - | - | - |
| 1788375878 | 13.33° C | 100% | 1007.9 hPa | 0 mm | - | - | - |
| 1788374678 | 13.33° C | 100% | 1008 hPa | 0 mm | - | - | - |
| 1788369876 | 14.44° C | 84% | 1007.9 hPa | 0 mm | - | - | - |
| 1788365075 | 17.22° C | 77% | 1007.6 hPa | 0 mm | - | - | - |
| 1788363877 | 17.78° C | 74% | 1007.6 hPa | 0 mm | - | - | - |
| 1788362675 | 18.33° C | 65% | 1007.6 hPa | 0 mm | - | - | - |
| 1788361477 | 18.33° C | 69% | 1007.7 hPa | 0 mm | - | - | - |
| 1788360276 | 18.33° C | 69% | 1007.7 hPa | 0 mm | - | - | - |
| 1788359076 | 18.33° C | 66% | 1007.7 hPa | 0 mm | - | - | - |
| 1788356675 | 18.89° C | 65% | 1007.8 hPa | 0 mm | - | - | - |
| 1788355475 | 18.89° C | 65% | 1007.8 hPa | 0 mm | - | - | - |
* Rain latest hour (hover to see other rain measurements)
** Current wind speed in m/s (hover to see current wind gust speed)